sensor_id;sensor_type;location;lat;lon;timestamp;pressure;altitude;pressure_sealevel;temperature;humidity
50682;BME280;36779;52.168;20.878;2022-09-09T00:02:22;100238.07;;;12.35;46.69
50682;BME280;36779;52.168;20.878;2022-09-09T00:04:59;100233.33;;;12.29;46.86
50682;BME280;36779;52.168;20.878;2022-09-09T00:07:34;100231.16;;;12.18;46.96
50682;BME280;36779;52.168;20.878;2022-09-09T00:10:19;100232.14;;;12.10;47.24
50682;BME280;36779;52.168;20.878;2022-09-09T00:13:04;100230.23;;;12.00;47.39
50682;BME280;36779;52.168;20.878;2022-09-09T00:15:41;100233.16;;;11.93;47.60
50682;BME280;36779;52.168;20.878;2022-09-09T00:18:18;100234.12;;;11.86;47.64
50682;BME280;36779;52.168;20.878;2022-09-09T00:20:57;100235.50;;;11.83;48.05
50682;BME280;36779;52.168;20.878;2022-09-09T00:23:29;100235.55;;;11.81;48.13
50682;BME280;36779;52.168;20.878;2022-09-09T00:26:07;100236.00;;;11.80;48.29
50682;BME280;36779;52.168;20.878;2022-09-09T00:28:41;100239.18;;;11.75;48.40
50682;BME280;36779;52.168;20.878;2022-09-09T00:31:18;100239.79;;;11.73;48.71
50682;BME280;36779;52.168;20.878;2022-09-09T00:33:51;100243.52;;;11.69;48.74
50682;BME280;36779;52.168;20.878;2022-09-09T00:36:23;100242.16;;;11.65;48.91
50682;BME280;36779;52.168;20.878;2022-09-09T00:38:57;100241.81;;;11.60;49.12
50682;BME280;36779;52.168;20.878;2022-09-09T00:41:35;100240.42;;;11.58;49.32
50682;BME280;36779;52.168;20.878;2022-09-09T00:44:19;100239.68;;;11.57;49.35
50682;BME280;36779;52.168;20.878;2022-09-09T00:46:59;100243.33;;;11.56;49.52
50682;BME280;36779;52.168;20.878;2022-09-09T00:49:39;100243.83;;;11.54;49.59
50682;BME280;36779;52.168;20.878;2022-09-09T00:52:18;100249.43;;;11.55;49.70
50682;BME280;36779;52.168;20.878;2022-09-09T00:54:56;100248.55;;;11.54;49.95
50682;BME280;36779;52.168;20.878;2022-09-09T00:57:31;100246.23;;;11.52;50.19
50682;BME280;36779;52.168;20.878;2022-09-09T01:06:04;100232.45;;;11.54;50.30
50682;BME280;36779;52.168;20.878;2022-09-09T01:08:52;100228.41;;;11.58;50.52
50682;BME280;36779;52.168;20.878;2022-09-09T01:11:38;100229.94;;;11.58;50.47
50682;BME280;36779;52.168;20.878;2022-09-09T01:14:22;100225.31;;;11.54;50.60
50682;BME280;36779;52.168;20.878;2022-09-09T01:17:02;100223.16;;;11.51;50.72
50682;BME280;36779;52.168;20.878;2022-09-09T01:20:03;100217.09;;;11.50;51.12
50682;BME280;36779;52.168;20.878;2022-09-09T01:23:00;100217.52;;;11.48;51.05
50682;BME280;36779;52.168;20.878;2022-09-09T01:26:16;100219.73;;;11.44;51.11
50682;BME280;36779;52.168;20.878;2022-09-09T01:28:59;100219.84;;;11.40;51.18
50682;BME280;36779;52.168;20.878;2022-09-09T01:31:51;100214.33;;;11.40;51.45
50682;BME280;36779;52.168;20.878;2022-09-09T01:34:23;100214.60;;;11.44;51.60
50682;BME280;36779;52.168;20.878;2022-09-09T01:36:57;100214.79;;;11.47;51.69
50682;BME280;36779;52.168;20.878;2022-09-09T01:39:27;100220.91;;;11.49;51.69
50682;BME280;36779;52.168;20.878;2022-09-09T01:42:05;100220.70;;;11.54;52.13
50682;BME280;36779;52.168;20.878;2022-09-09T01:44:36;100226.23;;;11.59;52.08
50682;BME280;36779;52.168;20.878;2022-09-09T01:47:06;100227.17;;;11.64;52.21
50682;BME280;36779;52.168;20.878;2022-09-09T01:49:39;100227.64;;;11.66;52.28
50682;BME280;36779;52.168;20.878;2022-09-09T01:52:17;100222.67;;;11.66;52.34
50682;BME280;36779;52.168;20.878;2022-09-09T01:54:59;100223.38;;;11.63;52.41
50682;BME280;36779;52.168;20.878;2022-09-09T01:57:41;100221.36;;;11.60;52.36
50682;BME280;36779;52.168;20.878;2022-09-09T02:00:18;100216.96;;;11.58;52.58
50682;BME280;36779;52.168;20.878;2022-09-09T02:02:59;100219.44;;;11.57;52.68
50682;BME280;36779;52.168;20.878;2022-09-09T02:05:49;100220.39;;;11.57;52.60
50682;BME280;36779;52.168;20.878;2022-09-09T02:08:36;100216.06;;;11.60;52.82
50682;BME280;36779;52.168;20.878;2022-09-09T02:11:13;100212.80;;;11.60;52.74
50682;BME280;36779;52.168;20.878;2022-09-09T02:13:46;100212.74;;;11.61;52.93
50682;BME280;36779;52.168;20.878;2022-09-09T02:16:23;100208.11;;;11.61;53.01
50682;BME280;36779;52.168;20.878;2022-09-09T02:18:57;100206.88;;;11.59;53.08
50682;BME280;36779;52.168;20.878;2022-09-09T02:21:36;100203.69;;;11.57;53.06
50682;BME280;36779;52.168;20.878;2022-09-09T02:24:08;100205.98;;;11.58;53.31
50682;BME280;36779;52.168;20.878;2022-09-09T02:26:43;100211.88;;;11.60;53.30
50682;BME280;36779;52.168;20.878;2022-09-09T02:29:18;100216.30;;;11.62;53.39
50682;BME280;36779;52.168;20.878;2022-09-09T02:31:50;100219.36;;;11.67;53.47
50682;BME280;36779;52.168;20.878;2022-09-09T02:34:24;100221.88;;;11.71;53.73
50682;BME280;36779;52.168;20.878;2022-09-09T02:37:00;100225.20;;;11.75;53.53
50682;BME280;36779;52.168;20.878;2022-09-09T02:39:29;100221.69;;;11.77;53.74
50682;BME280;36779;52.168;20.878;2022-09-09T02:41:58;100222.02;;;11.78;53.83
50682;BME280;36779;52.168;20.878;2022-09-09T02:44:31;100223.14;;;11.79;53.81
50682;BME280;36779;52.168;20.878;2022-09-09T02:47:12;100221.51;;;11.79;53.89
50682;BME280;36779;52.168;20.878;2022-09-09T02:49:55;100227.98;;;11.78;53.93
50682;BME280;36779;52.168;20.878;2022-09-09T02:52:30;100223.27;;;11.76;54.11
50682;BME280;36779;52.168;20.878;2022-09-09T02:55:06;100219.64;;;11.72;54.13
50682;BME280;36779;52.168;20.878;2022-09-09T02:57:39;100222.02;;;11.71;54.15
50682;BME280;36779;52.168;20.878;2022-09-09T03:00:12;100225.71;;;11.72;54.22
50682;BME280;36779;52.168;20.878;2022-09-09T03:02:41;100220.17;;;11.72;54.42
50682;BME280;36779;52.168;20.878;2022-09-09T03:05:10;100220.33;;;11.74;54.48
50682;BME280;36779;52.168;20.878;2022-09-09T03:07:41;100217.18;;;11.75;54.45
50682;BME280;36779;52.168;20.878;2022-09-09T03:10:09;100217.27;;;11.75;54.63
50682;BME280;36779;52.168;20.878;2022-09-09T03:12:38;100214.30;;;11.76;54.72
50682;BME280;36779;52.168;20.878;2022-09-09T03:15:09;100214.95;;;11.77;54.81
50682;BME280;36779;52.168;20.878;2022-09-09T03:17:39;100215.66;;;11.78;54.81
50682;BME280;36779;52.168;20.878;2022-09-09T03:20:09;100216.54;;;11.79;54.86
50682;BME280;36779;52.168;20.878;2022-09-09T03:22:38;100216.13;;;11.75;54.80
50682;BME280;36779;52.168;20.878;2022-09-09T03:25:08;100211.66;;;11.72;54.92
50682;BME280;36779;52.168;20.878;2022-09-09T03:27:36;100211.10;;;11.70;55.13
50682;BME280;36779;52.168;20.878;2022-09-09T03:30:08;100208.47;;;11.70;55.07
50682;BME280;36779;52.168;20.878;2022-09-09T03:32:36;100209.71;;;11.73;55.32
50682;BME280;36779;52.168;20.878;2022-09-09T03:35:06;100207.66;;;11.77;55.33
50682;BME280;36779;52.168;20.878;2022-09-09T03:37:35;100212.66;;;11.78;55.35
50682;BME280;36779;52.168;20.878;2022-09-09T03:40:08;100210.45;;;11.81;55.39
50682;BME280;36779;52.168;20.878;2022-09-09T03:43:24;100212.33;;;11.83;55.33
50682;BME280;36779;52.168;20.878;2022-09-09T03:45:54;100216.86;;;11.86;55.60
50682;BME280;36779;52.168;20.878;2022-09-09T03:51:08;100223.00;;;11.88;55.75
50682;BME280;36779;52.168;20.878;2022-09-09T03:53:38;100222.72;;;11.86;55.68
50682;BME280;36779;52.168;20.878;2022-09-09T03:56:08;100220.30;;;11.84;55.69
50682;BME280;36779;52.168;20.878;2022-09-09T03:58:38;100218.55;;;11.82;55.81
50682;BME280;36779;52.168;20.878;2022-09-09T04:01:10;100217.34;;;11.80;55.78
50682;BME280;36779;52.168;20.878;2022-09-09T04:03:42;100216.96;;;11.80;55.85
50682;BME280;36779;52.168;20.878;2022-09-09T04:06:14;100219.21;;;11.81;55.97
50682;BME280;36779;52.168;20.878;2022-09-09T04:08:46;100213.39;;;11.80;55.83
50682;BME280;36779;52.168;20.878;2022-09-09T04:11:24;100211.94;;;11.77;55.99
50682;BME280;36779;52.168;20.878;2022-09-09T04:13:59;100209.30;;;11.77;56.19
50682;BME280;36779;52.168;20.878;2022-09-09T04:16:30;100213.56;;;11.80;56.14
50682;BME280;36779;52.168;20.878;2022-09-09T04:19:00;100213.95;;;11.81;56.29
50682;BME280;36779;52.168;20.878;2022-09-09T04:21:37;100216.32;;;11.78;56.36
50682;BME280;36779;52.168;20.878;2022-09-09T04:24:22;100214.13;;;11.78;56.42
50682;BME280;36779;52.168;20.878;2022-09-09T04:27:08;100215.06;;;11.79;56.45
50682;BME280;36779;52.168;20.878;2022-09-09T04:29:52;100211.70;;;11.84;56.54
50682;BME280;36779;52.168;20.878;2022-09-09T04:32:56;100215.22;;;11.89;56.74
50682;BME280;36779;52.168;20.878;2022-09-09T04:36:07;100222.45;;;11.97;56.79
50682;BME280;36779;52.168;20.878;2022-09-09T04:39:02;100218.80;;;12.05;56.80
50682;BME280;36779;52.168;20.878;2022-09-09T04:41:59;100217.81;;;12.09;56.74
50682;BME280;36779;52.168;20.878;2022-09-09T04:48:07;100224.33;;;12.01;57.05
50682;BME280;36779;52.168;20.878;2022-09-09T04:50:41;100228.80;;;12.01;57.05
50682;BME280;36779;52.168;20.878;2022-09-09T04:53:25;100235.15;;;12.02;57.11
50682;BME280;36779;52.168;20.878;2022-09-09T04:56:02;100234.81;;;12.01;57.09
50682;BME280;36779;52.168;20.878;2022-09-09T04:58:33;100232.75;;;12.01;57.12
50682;BME280;36779;52.168;20.878;2022-09-09T05:01:05;100233.88;;;12.04;57.05
50682;BME280;36779;52.168;20.878;2022-09-09T05:03:35;100232.22;;;12.08;57.16
50682;BME280;36779;52.168;20.878;2022-09-09T05:06:06;100234.11;;;12.10;57.22
50682;BME280;36779;52.168;20.878;2022-09-09T05:08:37;100236.66;;;12.12;57.48
50682;BME280;36779;52.168;20.878;2022-09-09T05:11:14;100233.25;;;12.15;57.33
50682;BME280;36779;52.168;20.878;2022-09-09T05:13:45;100237.08;;;12.16;57.49
50682;BME280;36779;52.168;20.878;2022-09-09T05:16:17;100240.62;;;12.16;57.42
50682;BME280;36779;52.168;20.878;2022-09-09T05:18:47;100240.90;;;12.14;57.52
50682;BME280;36779;52.168;20.878;2022-09-09T05:21:19;100242.30;;;12.14;57.37
50682;BME280;36779;52.168;20.878;2022-09-09T05:23:47;100241.77;;;12.16;57.50
50682;BME280;36779;52.168;20.878;2022-09-09T05:26:18;100243.61;;;12.18;57.54
50682;BME280;36779;52.168;20.878;2022-09-09T05:28:52;100242.29;;;12.20;57.64
50682;BME280;36779;52.168;20.878;2022-09-09T05:31:22;100245.31;;;12.23;57.82
50682;BME280;36779;52.168;20.878;2022-09-09T05:33:52;100243.89;;;12.28;57.94
50682;BME280;36779;52.168;20.878;2022-09-09T05:36:22;100239.42;;;12.31;57.79
50682;BME280;36779;52.168;20.878;2022-09-09T05:38:54;100240.48;;;12.33;57.92
50682;BME280;36779;52.168;20.878;2022-09-09T05:41:27;100240.33;;;12.31;57.98
50682;BME280;36779;52.168;20.878;2022-09-09T05:43:59;100237.48;;;12.31;58.02
50682;BME280;36779;52.168;20.878;2022-09-09T05:46:48;100237.45;;;12.32;58.04
50682;BME280;36779;52.168;20.878;2022-09-09T05:49:20;100234.08;;;12.32;57.93
50682;BME280;36779;52.168;20.878;2022-09-09T05:51:50;100235.49;;;12.33;58.06
50682;BME280;36779;52.168;20.878;2022-09-09T05:54:20;100239.82;;;12.37;58.32
50682;BME280;36779;52.168;20.878;2022-09-09T05:56:52;100242.39;;;12.41;58.24
50682;BME280;36779;52.168;20.878;2022-09-09T05:59:21;100243.92;;;12.43;58.37
50682;BME280;36779;52.168;20.878;2022-09-09T06:01:53;100251.33;;;12.45;58.40
50682;BME280;36779;52.168;20.878;2022-09-09T06:04:30;100250.05;;;12.47;58.43
50682;BME280;36779;52.168;20.878;2022-09-09T06:07:00;100252.52;;;12.47;58.47
50682;BME280;36779;52.168;20.878;2022-09-09T06:09:30;100255.45;;;12.45;58.39
50682;BME280;36779;52.168;20.878;2022-09-09T06:11:59;100256.36;;;12.48;58.44
50682;BME280;36779;52.168;20.878;2022-09-09T06:14:28;100261.55;;;12.51;58.36
50682;BME280;36779;52.168;20.878;2022-09-09T06:16:59;100265.80;;;12.54;58.67
50682;BME280;36779;52.168;20.878;2022-09-09T06:19:31;100266.80;;;12.60;58.61
50682;BME280;36779;52.168;20.878;2022-09-09T06:22:00;100265.39;;;12.63;58.58
50682;BME280;36779;52.168;20.878;2022-09-09T06:24:31;100265.94;;;12.64;58.75
50682;BME280;36779;52.168;20.878;2022-09-09T06:27:02;100267.83;;;12.66;58.81
50682;BME280;36779;52.168;20.878;2022-09-09T06:29:35;100267.64;;;12.67;58.84
50682;BME280;36779;52.168;20.878;2022-09-09T06:32:05;100270.41;;;12.68;58.70
50682;BME280;36779;52.168;20.878;2022-09-09T06:34:33;100264.82;;;12.66;58.76
50682;BME280;36779;52.168;20.878;2022-09-09T06:37:03;100273.73;;;12.67;58.93
50682;BME280;36779;52.168;20.878;2022-09-09T06:39:37;100272.94;;;12.71;58.90
50682;BME280;36779;52.168;20.878;2022-09-09T06:42:07;100275.30;;;12.72;58.86
50682;BME280;36779;52.168;20.878;2022-09-09T06:44:48;100275.02;;;12.80;59.01
50682;BME280;36779;52.168;20.878;2022-09-09T06:47:29;100274.66;;;12.83;58.98
50682;BME280;36779;52.168;20.878;2022-09-09T06:49:58;100276.20;;;12.86;59.19
50682;BME280;36779;52.168;20.878;2022-09-09T06:52:27;100275.11;;;12.88;59.16
50682;BME280;36779;52.168;20.878;2022-09-09T06:54:56;100275.87;;;12.89;59.22
50682;BME280;36779;52.168;20.878;2022-09-09T06:57:27;100277.12;;;12.87;59.27
50682;BME280;36779;52.168;20.878;2022-09-09T07:00:09;100278.58;;;12.88;59.12
50682;BME280;36779;52.168;20.878;2022-09-09T07:02:38;100280.27;;;12.91;59.45
50682;BME280;36779;52.168;20.878;2022-09-09T07:05:09;100281.23;;;12.93;59.35
50682;BME280;36779;52.168;20.878;2022-09-09T07:07:37;100280.27;;;12.95;59.17
50682;BME280;36779;52.168;20.878;2022-09-09T07:10:07;100285.83;;;12.99;59.31
50682;BME280;36779;52.168;20.878;2022-09-09T07:12:36;100291.54;;;13.03;59.25
50682;BME280;36779;52.168;20.878;2022-09-09T07:15:08;100294.37;;;13.09;59.36
50682;BME280;36779;52.168;20.878;2022-09-09T07:17:36;100294.54;;;13.12;59.58
50682;BME280;36779;52.168;20.878;2022-09-09T07:20:09;100296.77;;;13.16;59.61
50682;BME280;36779;52.168;20.878;2022-09-09T07:22:37;100297.52;;;13.15;59.41
50682;BME280;36779;52.168;20.878;2022-09-09T07:25:08;100298.93;;;13.19;59.70
50682;BME280;36779;52.168;20.878;2022-09-09T07:27:38;100300.27;;;13.16;59.33
50682;BME280;36779;52.168;20.878;2022-09-09T07:30:09;100298.70;;;13.17;59.54
50682;BME280;36779;52.168;20.878;2022-09-09T07:32:40;100295.04;;;13.22;59.59
50682;BME280;36779;52.168;20.878;2022-09-09T07:35:09;100290.40;;;13.29;59.82
50682;BME280;36779;52.168;20.878;2022-09-09T07:37:40;100293.20;;;13.34;59.84
50682;BME280;36779;52.168;20.878;2022-09-09T07:40:09;100291.54;;;13.36;59.72
50682;BME280;36779;52.168;20.878;2022-09-09T07:42:39;100295.77;;;13.41;59.75
50682;BME280;36779;52.168;20.878;2022-09-09T07:45:07;100296.50;;;13.49;59.72
50682;BME280;36779;52.168;20.878;2022-09-09T07:47:36;100302.10;;;13.54;59.84
50682;BME280;36779;52.168;20.878;2022-09-09T07:50:06;100306.38;;;13.58;59.83
50682;BME280;36779;52.168;20.878;2022-09-09T07:52:39;100313.02;;;13.60;60.02
50682;BME280;36779;52.168;20.878;2022-09-09T07:55:09;100318.64;;;13.60;59.85
50682;BME280;36779;52.168;20.878;2022-09-09T07:57:38;100322.51;;;13.62;59.90
50682;BME280;36779;52.168;20.878;2022-09-09T08:00:14;100329.65;;;13.61;59.64
50682;BME280;36779;52.168;20.878;2022-09-09T08:02:45;100335.63;;;13.60;59.77
50682;BME280;36779;52.168;20.878;2022-09-09T08:05:16;100342.28;;;13.63;60.06
50682;BME280;36779;52.168;20.878;2022-09-09T08:07:46;100341.58;;;13.66;59.97
50682;BME280;36779;52.168;20.878;2022-09-09T08:10:16;100343.88;;;13.66;60.05
50682;BME280;36779;52.168;20.878;2022-09-09T08:12:47;100336.25;;;13.65;59.98
50682;BME280;36779;52.168;20.878;2022-09-09T08:15:37;100338.70;;;13.66;60.11
50682;BME280;36779;52.168;20.878;2022-09-09T08:18:06;100341.58;;;13.70;60.20
50682;BME280;36779;52.168;20.878;2022-09-09T08:20:37;100347.80;;;13.74;60.28
50682;BME280;36779;52.168;20.878;2022-09-09T08:23:06;100346.40;;;13.76;60.37
50682;BME280;36779;52.168;20.878;2022-09-09T08:25:35;100345.95;;;13.80;60.29
50682;BME280;36779;52.168;20.878;2022-09-09T08:28:04;100340.83;;;13.81;60.34
50682;BME280;36779;52.168;20.878;2022-09-09T08:30:32;100341.61;;;13.83;60.43
50682;BME280;36779;52.168;20.878;2022-09-09T08:33:01;100339.23;;;13.90;60.52
50682;BME280;36779;52.168;20.878;2022-09-09T08:35:30;100344.67;;;13.97;60.36
50682;BME280;36779;52.168;20.878;2022-09-09T08:38:00;100351.35;;;14.02;60.41
50682;BME280;36779;52.168;20.878;2022-09-09T08:40:40;100352.14;;;14.03;60.54
50682;BME280;36779;52.168;20.878;2022-09-09T08:43:13;100348.11;;;14.04;60.45
50682;BME280;36779;52.168;20.878;2022-09-09T08:45:50;100352.85;;;14.04;60.37
50682;BME280;36779;52.168;20.878;2022-09-09T08:48:39;100353.89;;;14.07;60.36
50682;BME280;36779;52.168;20.878;2022-09-09T08:51:11;100358.06;;;14.11;60.47
50682;BME280;36779;52.168;20.878;2022-09-09T08:53:43;100360.73;;;14.13;60.65
50682;BME280;36779;52.168;20.878;2022-09-09T08:56:15;100357.06;;;14.17;60.65
50682;BME280;36779;52.168;20.878;2022-09-09T08:58:54;100357.67;;;14.22;60.66
50682;BME280;36779;52.168;20.878;2022-09-09T09:01:58;100347.73;;;14.26;60.39
50682;BME280;36779;52.168;20.878;2022-09-09T09:04:51;100347.42;;;14.27;60.37
50682;BME280;36779;52.168;20.878;2022-09-09T09:07:31;100348.04;;;14.33;60.69
50682;BME280;36779;52.168;20.878;2022-09-09T09:10:11;100350.83;;;14.43;60.87
50682;BME280;36779;52.168;20.878;2022-09-09T09:13:04;100358.70;;;14.49;60.90
50682;BME280;36779;52.168;20.878;2022-09-09T09:15:38;100362.08;;;14.47;60.72
50682;BME280;36779;52.168;20.878;2022-09-09T09:18:08;100365.08;;;14.45;60.77
50682;BME280;36779;52.168;20.878;2022-09-09T09:20:47;100372.70;;;14.44;60.77
50682;BME280;36779;52.168;20.878;2022-09-09T09:23:23;100373.43;;;14.48;60.94
50682;BME280;36779;52.168;20.878;2022-09-09T09:25:58;100374.67;;;14.53;60.93
50682;BME280;36779;52.168;20.878;2022-09-09T09:28:30;100375.00;;;14.53;60.81
50682;BME280;36779;52.168;20.878;2022-09-09T09:31:08;100371.88;;;14.54;60.63
50682;BME280;36779;52.168;20.878;2022-09-09T09:33:46;100374.20;;;14.55;60.81
50682;BME280;36779;52.168;20.878;2022-09-09T09:36:16;100375.10;;;14.54;60.67
50682;BME280;36779;52.168;20.878;2022-09-09T09:38:55;100373.73;;;14.55;61.05
50682;BME280;36779;52.168;20.878;2022-09-09T09:41:44;100371.13;;;14.58;60.99
50682;BME280;36779;52.168;20.878;2022-09-09T09:44:25;100375.48;;;14.59;60.96
50682;BME280;36779;52.168;20.878;2022-09-09T09:47:06;100376.46;;;14.57;60.92
50682;BME280;36779;52.168;20.878;2022-09-09T09:49:35;100375.43;;;14.55;60.88
50682;BME280;36779;52.168;20.878;2022-09-09T09:52:05;100372.09;;;14.58;60.90
50682;BME280;36779;52.168;20.878;2022-09-09T09:54:39;100372.45;;;14.65;61.00
50682;BME280;36779;52.168;20.878;2022-09-09T09:57:12;100376.73;;;14.71;61.28
50682;BME280;36779;52.168;20.878;2022-09-09T09:59:43;100372.48;;;14.75;61.14
50682;BME280;36779;52.168;20.878;2022-09-09T10:02:19;100376.23;;;14.73;60.96
50682;BME280;36779;52.168;20.878;2022-09-09T10:05:02;100382.27;;;14.74;60.86
50682;BME280;36779;52.168;20.878;2022-09-09T10:07:31;100385.87;;;14.75;61.23
50682;BME280;36779;52.168;20.878;2022-09-09T10:10:01;100390.25;;;14.76;61.28
50682;BME280;36779;52.168;20.878;2022-09-09T10:12:42;100385.42;;;14.76;61.16
50682;BME280;36779;52.168;20.878;2022-09-09T10:15:31;100387.13;;;14.76;61.11
50682;BME280;36779;52.168;20.878;2022-09-09T10:18:29;100385.73;;;14.75;61.05
50682;BME280;36779;52.168;20.878;2022-09-09T10:21:06;100389.27;;;14.73;61.07
50682;BME280;36779;52.168;20.878;2022-09-09T10:23:54;100392.89;;;14.72;60.93
50682;BME280;36779;52.168;20.878;2022-09-09T10:26:35;100397.59;;;14.72;60.96
50682;BME280;36779;52.168;20.878;2022-09-09T10:29:20;100402.91;;;14.79;61.30
50682;BME280;36779;52.168;20.878;2022-09-09T10:31:57;100402.77;;;14.86;61.20
50682;BME280;36779;52.168;20.878;2022-09-09T10:34:45;100411.20;;;14.92;61.22
50682;BME280;36779;52.168;20.878;2022-09-09T10:37:29;100423.04;;;14.92;61.45
50682;BME280;36779;52.168;20.878;2022-09-09T10:40:18;100427.52;;;14.96;61.62
50682;BME280;36779;52.168;20.878;2022-09-09T10:42:49;100429.38;;;14.97;61.54
50682;BME280;36779;52.168;20.878;2022-09-09T10:45:20;100429.98;;;14.92;61.29
50682;BME280;36779;52.168;20.878;2022-09-09T10:48:03;100433.06;;;14.90;61.59
50682;BME280;36779;52.168;20.878;2022-09-09T10:50:43;100430.45;;;14.93;61.56
50682;BME280;36779;52.168;20.878;2022-09-09T10:53:46;100429.77;;;14.91;61.26
50682;BME280;36779;52.168;20.878;2022-09-09T10:56:22;100439.25;;;14.94;61.39
50682;BME280;36779;52.168;20.878;2022-09-09T10:58:55;100439.89;;;14.95;61.64
50682;BME280;36779;52.168;20.878;2022-09-09T11:01:28;100442.27;;;14.97;61.38
50682;BME280;36779;52.168;20.878;2022-09-09T11:04:05;100442.47;;;14.97;61.73
50682;BME280;36779;52.168;20.878;2022-09-09T11:06:41;100444.86;;;14.97;61.58
50682;BME280;36779;52.168;20.878;2022-09-09T11:09:18;100445.45;;;14.94;61.57
50682;BME280;36779;52.168;20.878;2022-09-09T11:11:53;100448.80;;;14.94;61.51
50682;BME280;36779;52.168;20.878;2022-09-09T11:14:29;100451.48;;;14.96;61.50
50682;BME280;36779;52.168;20.878;2022-09-09T11:17:09;100448.66;;;14.94;61.50
50682;BME280;36779;52.168;20.878;2022-09-09T11:19:40;100447.56;;;14.93;61.69
50682;BME280;36779;52.168;20.878;2022-09-09T11:22:17;100446.23;;;14.95;61.47
50682;BME280;36779;52.168;20.878;2022-09-09T11:24:52;100448.50;;;14.98;61.55
50682;BME280;36779;52.168;20.878;2022-09-09T11:27:27;100452.73;;;14.99;61.76
50682;BME280;36779;52.168;20.878;2022-09-09T11:30:14;100452.55;;;15.06;61.81
50682;BME280;36779;52.168;20.878;2022-09-09T11:33:14;100457.98;;;15.14;62.05
50682;BME280;36779;52.168;20.878;2022-09-09T11:36:02;100459.11;;;15.15;61.78
50682;BME280;36779;52.168;20.878;2022-09-09T11:38:44;100457.48;;;15.17;61.86
50682;BME280;36779;52.168;20.878;2022-09-09T11:41:20;100456.95;;;15.20;61.99
50682;BME280;36779;52.168;20.878;2022-09-09T11:43:51;100457.60;;;15.26;62.27
50682;BME280;36779;52.168;20.878;2022-09-09T11:46:21;100460.55;;;15.31;62.10
50682;BME280;36779;52.168;20.878;2022-09-09T11:48:59;100462.73;;;15.35;61.91
50682;BME280;36779;52.168;20.878;2022-09-09T11:51:30;100460.98;;;15.38;61.88
50682;BME280;36779;52.168;20.878;2022-09-09T11:54:00;100462.06;;;15.38;61.93
50682;BME280;36779;52.168;20.878;2022-09-09T11:56:32;100462.84;;;15.40;61.85
50682;BME280;36779;52.168;20.878;2022-09-09T11:59:03;100460.73;;;15.45;61.98
50682;BME280;36779;52.168;20.878;2022-09-09T12:01:38;100462.42;;;15.53;62.31
50682;BME280;36779;52.168;20.878;2022-09-09T12:04:28;100459.65;;;15.57;62.24
50682;BME280;36779;52.168;20.878;2022-09-09T12:07:00;100460.44;;;15.58;61.95
50682;BME280;36779;52.168;20.878;2022-09-09T12:09:49;100460.98;;;15.53;61.94
50682;BME280;36779;52.168;20.878;2022-09-09T12:12:24;100464.87;;;15.54;62.20
50682;BME280;36779;52.168;20.878;2022-09-09T12:15:16;100468.02;;;15.51;62.04
50682;BME280;36779;52.168;20.878;2022-09-09T12:17:49;100461.70;;;15.43;62.01
50682;BME280;36779;52.168;20.878;2022-09-09T12:20:21;100466.09;;;15.40;62.23
50682;BME280;36779;52.168;20.878;2022-09-09T12:23:01;100462.03;;;15.39;62.25
50682;BME280;36779;52.168;20.878;2022-09-09T12:25:46;100468.05;;;15.41;62.32
50682;BME280;36779;52.168;20.878;2022-09-09T12:28:22;100470.98;;;15.44;62.27
50682;BME280;36779;52.168;20.878;2022-09-09T12:30:58;100466.52;;;15.46;62.35
50682;BME280;36779;52.168;20.878;2022-09-09T12:33:35;100463.84;;;15.49;62.40
50682;BME280;36779;52.168;20.878;2022-09-09T12:36:06;100467.13;;;15.53;62.53
50682;BME280;36779;52.168;20.878;2022-09-09T12:38:41;100463.09;;;15.54;62.48
50682;BME280;36779;52.168;20.878;2022-09-09T12:41:20;100462.05;;;15.55;62.43
50682;BME280;36779;52.168;20.878;2022-09-09T12:43:49;100456.31;;;15.55;62.31
50682;BME280;36779;52.168;20.878;2022-09-09T12:46:33;100452.20;;;15.52;62.19
50682;BME280;36779;52.168;20.878;2022-09-09T12:49:04;100453.50;;;15.54;62.27
50682;BME280;36779;52.168;20.878;2022-09-09T12:51:34;100456.52;;;15.63;62.46
50682;BME280;36779;52.168;20.878;2022-09-09T12:54:04;100454.76;;;15.72;62.49
50682;BME280;36779;52.168;20.878;2022-09-09T12:56:33;100454.56;;;15.78;62.30
50682;BME280;36779;52.168;20.878;2022-09-09T12:59:03;100460.58;;;15.81;62.54
50682;BME280;36779;52.168;20.878;2022-09-09T13:01:35;100461.58;;;15.80;62.25
50682;BME280;36779;52.168;20.878;2022-09-09T13:04:20;100461.04;;;15.80;62.34
50682;BME280;36779;52.168;20.878;2022-09-09T13:06:50;100455.89;;;15.84;62.43
50682;BME280;36779;52.168;20.878;2022-09-09T13:09:20;100457.75;;;15.85;62.34
50682;BME280;36779;52.168;20.878;2022-09-09T13:11:51;100448.73;;;15.84;62.48
50682;BME280;36779;52.168;20.878;2022-09-09T13:14:29;100452.88;;;15.89;62.33
50682;BME280;36779;52.168;20.878;2022-09-09T13:17:04;100452.69;;;15.93;62.67
50682;BME280;36779;52.168;20.878;2022-09-09T13:19:38;100449.76;;;15.98;62.56
50682;BME280;36779;52.168;20.878;2022-09-09T13:22:16;100443.12;;;16.00;62.62
50682;BME280;36779;52.168;20.878;2022-09-09T13:24:48;100442.50;;;15.96;62.54
50682;BME280;36779;52.168;20.878;2022-09-09T13:27:30;100444.30;;;15.94;62.54
50682;BME280;36779;52.168;20.878;2022-09-09T13:30:00;100441.32;;;15.92;62.34
50682;BME280;36779;52.168;20.878;2022-09-09T13:32:29;100439.59;;;15.88;62.40
50682;BME280;36779;52.168;20.878;2022-09-09T13:35:03;100442.60;;;15.89;62.64
50682;BME280;36779;52.168;20.878;2022-09-09T13:37:35;100443.75;;;15.91;62.55